Alderson, Oklahoma
Current Conditions -  °F | °C
As of 4:53 PM on Tuesday 27 Jan 2015 (Local Time) from KMLC Reporting Station
Few Clouds Few Clouds  
Wind Chill: 23°   Ceiling: Unl
Heat Index: 23°   Visibility: 10mi
Dew Point:   Wind: 8mph
Humidity: 24%   Direction: 210°SSW
Pressure: 30.09"   Gusts: NA
Location:  34.9°N, 95.69°W
Report Text: KMLC 272253Z AUTO 21007KT 10SM FEW100 23/02 A3009 RMK AO2 SLP185 T02330017
Loading
Personal Weather Stations






























Interactive Weather Map New forecast layout! Learn more

10-Day Weather Forecast

Advertisements
Track Severe Weather on mobile